createdAt,value
2023-02-27T00:00:58.873Z,101513.88
2023-02-27T00:02:01.825Z,101513.25
2023-02-27T00:03:03.503Z,101523.81
2023-02-27T00:04:06.114Z,101506.75
2023-02-27T00:05:08.544Z,101511.78
2023-02-27T00:06:11.218Z,101518.25
2023-02-27T00:07:14.130Z,101519.94
2023-02-27T00:08:16.629Z,101517.88
2023-02-27T00:09:18.363Z,101515.75
2023-02-27T00:10:21.365Z,101519.91
2023-02-27T00:11:22.874Z,101513.66
2023-02-27T00:12:25.372Z,101516.00
2023-02-27T00:13:26.962Z,101509.75
2023-02-27T00:14:29.942Z,101508.75
2023-02-27T00:15:32.215Z,101504.59
2023-02-27T00:16:35.041Z,101503.78
2023-02-27T00:17:36.849Z,101505.25
2023-02-27T00:18:40.240Z,101501.41
2023-02-27T00:19:42.008Z,101508.22
2023-02-27T00:20:44.456Z,101506.84
2023-02-27T00:21:46.140Z,101508.03
2023-02-27T00:22:49.981Z,101512.53
2023-02-27T00:23:51.553Z,101505.81
2023-02-27T00:24:54.416Z,101508.53
2023-02-27T00:26:01.028Z,101502.88
2023-02-27T00:27:02.586Z,101513.44
2023-02-27T00:28:05.335Z,101508.91
2023-02-27T00:29:07.193Z,101507.84
2023-02-27T00:30:12.314Z,101509.88
2023-02-27T00:31:13.851Z,101509.91
2023-02-27T00:32:16.435Z,101508.25
2023-02-27T00:33:18.004Z,101514.09
2023-02-27T00:34:20.431Z,101517.59
2023-02-27T00:35:22.273Z,101517.28
2023-02-27T00:36:24.846Z,101518.28
2023-02-27T00:37:26.517Z,101515.94
2023-02-27T00:39:57.517Z,101521.94
2023-02-27T00:41:00.213Z,101529.56
2023-02-27T00:42:02.737Z,101519.88
2023-02-27T00:43:05.073Z,101525.25
2023-02-27T00:44:07.935Z,101527.47
2023-02-27T00:45:10.365Z,101524.13
2023-02-27T00:46:20.954Z,101530.09
2023-02-27T00:47:26.037Z,101521.78
2023-02-27T00:48:28.799Z,101514.44
2023-02-27T00:49:30.357Z,101517.94
2023-02-27T00:50:33.090Z,101520.28
2023-02-27T00:51:34.604Z,101517.56
2023-02-27T00:52:37.099Z,101515.91
2023-02-27T00:53:38.632Z,101519.25
2023-02-27T00:54:41.082Z,101504.16
2023-02-27T00:55:43.906Z,101508.28
2023-02-27T00:56:46.414Z,101505.53
2023-02-27T00:57:48.242Z,101507.56
2023-02-27T00:58:50.713Z,101516.44
2023-02-27T00:59:52.249Z,101509.88
2023-02-27T01:00:54.693Z,101512.56
2023-02-27T01:01:56.466Z,101512.56
2023-02-27T01:02:58.946Z,101514.56
2023-02-27T01:04:00.686Z,101505.16
2023-02-27T01:05:03.229Z,101510.78
2023-02-27T01:06:05.330Z,101502.44
2023-02-27T01:07:07.875Z,101505.81
2023-02-27T01:08:11.786Z,101512.13
2023-02-27T01:09:14.246Z,101507.75
2023-02-27T01:10:16.400Z,101501.69
2023-02-27T01:11:20.366Z,101517.31
2023-02-27T01:12:22.157Z,101505.31
2023-02-27T01:13:24.963Z,101508.53
2023-02-27T01:14:26.766Z,101515.19
2023-02-27T01:15:29.303Z,101513.63
2023-02-27T01:16:31.628Z,101512.13
2023-02-27T01:17:35.139Z,101510.78
2023-02-27T01:19:53.022Z,101514.09
2023-02-27T01:20:56.339Z,101517.59
2023-02-27T01:21:58.136Z,101507.78
2023-02-27T01:23:00.556Z,101515.25
2023-02-27T01:24:02.950Z,101514.91
2023-02-27T01:25:06.055Z,101507.59
2023-02-27T01:26:08.039Z,101510.72
2023-02-27T01:27:11.865Z,101514.50
2023-02-27T01:28:13.428Z,101520.09
2023-02-27T01:29:16.128Z,101515.66
2023-02-27T01:30:18.071Z,101510.91
2023-02-27T01:31:20.766Z,101505.69
2023-02-27T01:32:22.545Z,101518.13
2023-02-27T01:33:25.163Z,101515.56
2023-02-27T01:34:26.629Z,101515.63
2023-02-27T01:35:29.217Z,101514.88
2023-02-27T01:36:30.772Z,101518.91
2023-02-27T01:37:33.230Z,101527.03
2023-02-27T01:38:34.788Z,101525.13
2023-02-27T01:39:37.529Z,101526.19
2023-02-27T01:40:41.091Z,101516.34
2023-02-27T01:41:43.580Z,101521.44
2023-02-27T01:42:47.284Z,101522.09
2023-02-27T01:43:58.850Z,101521.38
2023-02-27T01:45:25.145Z,101524.38
2023-02-27T01:46:29.146Z,101528.31
2023-02-27T01:47:30.727Z,101526.81
2023-02-27T01:48:36.323Z,101525.25
2023-02-27T01:49:37.872Z,101529.50
2023-02-27T01:50:44.797Z,101532.56
2023-02-27T01:51:50.267Z,101529.06
2023-02-27T01:52:56.324Z,101525.25
2023-02-27T01:53:59.607Z,101533.81
2023-02-27T01:55:01.262Z,101527.59
2023-02-27T01:56:06.994Z,101531.00
2023-02-27T01:57:09.714Z,101530.69
2023-02-27T01:58:14.189Z,101533.38
2023-02-27T01:59:16.744Z,101531.19
2023-02-27T02:00:19.773Z,101531.69
2023-02-27T02:01:22.973Z,101529.69
2023-02-27T02:02:30.805Z,101529.03
2023-02-27T02:03:38.536Z,101525.94
2023-02-27T02:04:41.190Z,101526.09
2023-02-27T02:05:46.808Z,101522.22
2023-02-27T02:06:53.954Z,101529.28
2023-02-27T02:07:56.659Z,101529.75
2023-02-27T02:09:00.727Z,101539.53
2023-02-27T02:10:02.541Z,101534.31
2023-02-27T02:11:07.174Z,101537.66
2023-02-27T02:12:10.473Z,101538.06
2023-02-27T02:13:14.966Z,101541.09
2023-02-27T02:14:16.672Z,101535.16
2023-02-27T02:15:21.102Z,101541.16
2023-02-27T02:16:43.864Z,101545.09
2023-02-27T02:17:56.567Z,101536.75
2023-02-27T02:19:08.363Z,101529.41
2023-02-27T02:20:49.224Z,101534.03
2023-02-27T02:22:35.318Z,101533.69
2023-02-27T02:24:11.536Z,101533.13
2023-02-27T02:25:59.182Z,101538.19
2023-02-27T02:27:10.919Z,101530.72
2023-02-27T02:28:33.676Z,101529.72
2023-02-27T02:30:06.593Z,101530.94
2023-02-27T02:31:31.714Z,101528.09
2023-02-27T02:33:15.315Z,101532.28
2023-02-27T02:34:42.220Z,101519.41
2023-02-27T02:36:21.899Z,101526.22
2023-02-27T02:37:53.486Z,101524.50
2023-02-27T02:39:17.898Z,101522.25
2023-02-27T02:40:35.575Z,101521.13
2023-02-27T02:41:57.122Z,101522.44
2023-02-27T02:43:08.492Z,101510.59
2023-02-27T02:44:20.694Z,101518.25
2023-02-27T02:45:32.175Z,101511.38
2023-02-27T02:46:43.534Z,101514.91
2023-02-27T02:47:59.494Z,101514.22
2023-02-27T02:49:11.213Z,101511.22
2023-02-27T02:50:21.046Z,101523.13
2023-02-27T02:51:31.664Z,101517.38
2023-02-27T02:52:43.603Z,101517.94
2023-02-27T02:53:52.693Z,101515.53
2023-02-27T02:55:02.881Z,101524.28
2023-02-27T02:56:08.460Z,101510.25
2023-02-27T02:57:16.342Z,101516.63
2023-02-27T02:58:24.879Z,101520.91
2023-02-27T02:59:34.896Z,101520.72
2023-02-27T03:00:42.707Z,101516.00
2023-02-27T03:01:50.090Z,101523.44
2023-02-27T03:02:57.094Z,101515.28
2023-02-27T03:04:06.851Z,101526.63
2023-02-27T03:05:12.361Z,101524.59
2023-02-27T03:06:20.288Z,101525.00
2023-02-27T03:07:27.228Z,101522.28
2023-02-27T03:08:33.973Z,101512.75
2023-02-27T03:09:41.329Z,101525.06
2023-02-27T03:10:48.815Z,101524.22
2023-02-27T03:11:53.611Z,101526.34
2023-02-27T03:13:01.746Z,101523.59
2023-02-27T03:14:09.108Z,101530.22
2023-02-27T03:15:17.274Z,101523.88
2023-02-27T03:16:23.846Z,101522.09
2023-02-27T03:17:35.137Z,101528.66
2023-02-27T03:18:42.454Z,101529.75
2023-02-27T03:19:50.209Z,101523.81
2023-02-27T03:20:56.002Z,101529.88
2023-02-27T03:22:02.783Z,101526.59
2023-02-27T03:23:11.309Z,101528.78
2023-02-27T03:24:17.117Z,101534.75
2023-02-27T03:25:21.379Z,101530.13
2023-02-27T03:26:32.420Z,101540.34
2023-02-27T03:27:40.401Z,101535.88
2023-02-27T03:28:52.285Z,101537.88
2023-02-27T03:29:59.064Z,101535.97
2023-02-27T03:31:10.032Z,101538.38
2023-02-27T03:32:18.005Z,101545.63
2023-02-27T03:33:25.411Z,101556.97
2023-02-27T03:34:31.508Z,101550.66
2023-02-27T03:35:42.181Z,101553.78
2023-02-27T03:36:49.178Z,101543.28
2023-02-27T03:37:58.170Z,101544.31
2023-02-27T03:39:05.886Z,101546.97
2023-02-27T03:40:20.294Z,101544.97
2023-02-27T03:41:32.715Z,101537.47
2023-02-27T03:42:39.320Z,101537.69
2023-02-27T03:43:51.221Z,101556.03
2023-02-27T03:44:58.639Z,101551.63
2023-02-27T03:46:08.614Z,101551.34
2023-02-27T03:47:10.156Z,101549.66
2023-02-27T03:48:13.139Z,101549.34
2023-02-27T03:49:15.255Z,101548.16
2023-02-27T03:50:18.238Z,101556.63
2023-02-27T03:51:22.211Z,101555.09
2023-02-27T03:52:26.985Z,101554.41
2023-02-27T03:53:36.068Z,101546.44
2023-02-27T03:54:46.060Z,101554.50
2023-02-27T03:55:49.368Z,101547.66
2023-02-27T03:56:59.809Z,101555.34
2023-02-27T03:58:01.369Z,101561.22
2023-02-27T03:59:04.992Z,101560.53
2023-02-27T04:00:10.498Z,101554.00
2023-02-27T04:01:13.237Z,101550.88
2023-02-27T04:02:16.189Z,101551.91
2023-02-27T04:03:18.969Z,101559.78
2023-02-27T04:04:20.982Z,101557.63
2023-02-27T04:05:24.267Z,101557.53
2023-02-27T04:06:46.207Z,101564.19
2023-02-27T04:08:02.428Z,101564.19
2023-02-27T04:09:11.993Z,101566.53
2023-02-27T04:10:37.052Z,101555.88
2023-02-27T04:12:00.048Z,101564.69
2023-02-27T04:13:37.890Z,101566.00
2023-02-27T04:14:52.377Z,101569.72
2023-02-27T04:16:05.698Z,101564.91
2023-02-27T04:18:51.707Z,101574.81
2023-02-27T04:20:17.002Z,101577.03
2023-02-27T04:21:28.117Z,101571.19
2023-02-27T04:22:36.671Z,101575.41
2023-02-27T04:23:46.896Z,101580.00
2023-02-27T04:24:55.411Z,101578.50
2023-02-27T04:26:11.718Z,101574.00
2023-02-27T04:27:24.477Z,101575.16
2023-02-27T04:28:32.401Z,101578.56
2023-02-27T04:30:03.759Z,101579.56
2023-02-27T04:31:15.739Z,101578.34
2023-02-27T04:32:22.616Z,101584.19
2023-02-27T04:33:34.539Z,101590.06
2023-02-27T04:34:40.557Z,101584.22
2023-02-27T04:35:51.393Z,101584.44
2023-02-27T04:36:57.827Z,101589.94
2023-02-27T04:38:05.006Z,101586.22
2023-02-27T04:39:17.956Z,101586.16
2023-02-27T04:40:24.021Z,101594.19
2023-02-27T04:41:30.322Z,101592.22
2023-02-27T04:42:35.919Z,101589.13
2023-02-27T04:43:41.911Z,101589.44
2023-02-27T04:44:46.282Z,101591.84
2023-02-27T04:45:50.599Z,101601.16
2023-02-27T04:46:55.037Z,101603.88
2023-02-27T04:48:02.315Z,101602.19
2023-02-27T04:49:09.970Z,101604.34
2023-02-27T04:50:15.653Z,101598.97
2023-02-27T04:51:22.553Z,101604.84
2023-02-27T04:52:29.812Z,101596.66
2023-02-27T04:53:36.710Z,101596.06
2023-02-27T04:54:42.868Z,101591.25
2023-02-27T04:55:50.572Z,101598.88
2023-02-27T04:56:56.409Z,101601.00
2023-02-27T04:58:04.078Z,101597.72
2023-02-27T04:59:09.378Z,101599.19
2023-02-27T05:00:16.049Z,101596.25
2023-02-27T05:01:24.165Z,101597.03
2023-02-27T05:02:29.291Z,101591.81
2023-02-27T05:03:35.374Z,101599.72
2023-02-27T05:04:41.117Z,101597.53
2023-02-27T05:05:46.694Z,101597.59
2023-02-27T05:06:51.622Z,101599.50
2023-02-27T05:07:59.253Z,101601.34
2023-02-27T05:09:12.927Z,101585.47
2023-02-27T05:10:21.930Z,101597.28
2023-02-27T05:11:29.495Z,101595.06
2023-02-27T05:12:36.260Z,101592.66
2023-02-27T05:13:44.504Z,101604.94
2023-02-27T05:14:51.506Z,101602.94
2023-02-27T05:15:59.816Z,101594.13
2023-02-27T05:17:08.647Z,101591.66
2023-02-27T05:18:12.621Z,101595.00
2023-02-27T05:19:15.266Z,101597.41
2023-02-27T05:20:18.107Z,101605.41
2023-02-27T05:21:27.660Z,101589.53
2023-02-27T05:22:36.347Z,101601.66
2023-02-27T05:23:49.856Z,101601.50
2023-02-27T05:24:59.287Z,101602.31
2023-02-27T05:26:10.152Z,101606.31
2023-02-27T05:27:25.613Z,101611.34
2023-02-27T05:28:35.129Z,101607.88
2023-02-27T05:29:45.290Z,101613.81
2023-02-27T05:30:54.191Z,101617.44
2023-02-27T05:32:04.596Z,101613.28
2023-02-27T05:33:13.899Z,101613.84
2023-02-27T05:34:22.658Z,101609.13
2023-02-27T05:35:30.683Z,101605.03
2023-02-27T05:36:37.817Z,101611.59
2023-02-27T05:37:45.775Z,101620.22
2023-02-27T05:38:52.238Z,101617.53
2023-02-27T05:39:54.037Z,101615.19
2023-02-27T05:41:01.946Z,101620.22
2023-02-27T05:42:08.853Z,101616.47
2023-02-27T05:43:17.318Z,101625.28
2023-02-27T05:44:22.086Z,101620.94
2023-02-27T05:45:29.605Z,101629.56
2023-02-27T05:46:35.536Z,101622.34
2023-02-27T05:47:45.073Z,101629.66
2023-02-27T05:48:53.001Z,101623.91
2023-02-27T05:50:00.358Z,101626.25
2023-02-27T05:51:06.884Z,101630.13
2023-02-27T05:52:14.153Z,101628.09
2023-02-27T05:53:19.447Z,101615.84
2023-02-27T05:54:28.770Z,101627.63
2023-02-27T05:55:36.273Z,101628.66
2023-02-27T05:56:41.005Z,101625.13
2023-02-27T05:57:45.774Z,101639.31
2023-02-27T05:58:53.866Z,101633.53
2023-02-27T06:00:00.933Z,101633.09
2023-02-27T06:01:07.238Z,101632.63
2023-02-27T06:02:09.360Z,101634.47
2023-02-27T06:03:24.911Z,101632.34
2023-02-27T06:04:37.520Z,101626.13
2023-02-27T06:05:51.687Z,101629.13
2023-02-27T06:06:56.797Z,101605.03
2023-02-27T06:08:05.701Z,101642.84
2023-02-27T06:10:55.735Z,101641.22
2023-02-27T06:12:01.608Z,101638.28
2023-02-27T06:13:08.245Z,101628.63
2023-02-27T06:14:11.962Z,101627.06
2023-02-27T06:15:23.878Z,101613.94
2023-02-27T06:16:28.057Z,101614.34
2023-02-27T06:17:31.933Z,101643.91
2023-02-27T06:18:33.403Z,101645.28
2023-02-27T06:19:35.954Z,101642.63
2023-02-27T06:20:37.679Z,101644.84
2023-02-27T06:21:54.492Z,101651.34
2023-02-27T06:23:08.865Z,101623.34
2023-02-27T06:24:17.305Z,101618.09
2023-02-27T06:25:34.158Z,101647.28
2023-02-27T06:26:35.809Z,101629.28
2023-02-27T06:27:38.678Z,101639.38
2023-02-27T06:28:40.725Z,101640.50
2023-02-27T06:29:43.212Z,101637.63
2023-02-27T06:30:46.345Z,101649.63
2023-02-27T06:31:50.650Z,101646.69
2023-02-27T06:32:52.596Z,101648.16
2023-02-27T06:33:56.152Z,101644.66
2023-02-27T06:34:57.688Z,101639.84
2023-02-27T06:36:00.212Z,101639.19
2023-02-27T06:37:04.173Z,101644.59
2023-02-27T06:38:06.889Z,101651.91
2023-02-27T06:39:08.780Z,101647.34
2023-02-27T06:40:12.474Z,101646.78
2023-02-27T06:41:14.503Z,101650.22
2023-02-27T06:42:17.317Z,101653.94
2023-02-27T06:43:18.941Z,101647.81
2023-02-27T06:44:21.931Z,101650.03
2023-02-27T06:45:24.379Z,101650.22
2023-02-27T06:46:27.374Z,101655.03
2023-02-27T06:47:30.840Z,101655.09
2023-02-27T06:48:33.641Z,101653.19
2023-02-27T06:49:35.489Z,101660.56
2023-02-27T06:50:39.184Z,101661.19
2023-02-27T06:51:40.790Z,101667.56
2023-02-27T06:52:43.429Z,101660.84
2023-02-27T06:53:44.980Z,101658.75
2023-02-27T06:54:47.467Z,101659.53
2023-02-27T06:55:49.509Z,101653.53
2023-02-27T06:56:52.192Z,101661.03
2023-02-27T06:57:53.670Z,101667.84
2023-02-27T06:58:57.611Z,101657.38
2023-02-27T07:00:01.822Z,101665.94
2023-02-27T07:01:03.442Z,101668.66
2023-02-27T07:02:05.899Z,101670.03
2023-02-27T07:03:08.767Z,101683.00
2023-02-27T07:04:13.941Z,101673.44
2023-02-27T07:05:15.792Z,101675.56
2023-02-27T07:06:18.258Z,101670.72
2023-02-27T07:07:32.666Z,101673.41
2023-02-27T07:08:39.018Z,101671.19
2023-02-27T07:10:01.446Z,101677.94
2023-02-27T07:11:03.127Z,101669.75
2023-02-27T07:12:06.618Z,101666.47
2023-02-27T07:13:09.075Z,101669.88
2023-02-27T07:14:10.698Z,101662.78
2023-02-27T07:15:13.404Z,101667.19
2023-02-27T07:16:15.017Z,101669.53
2023-02-27T07:17:17.731Z,101678.28
2023-02-27T07:18:20.822Z,101685.00
2023-02-27T07:19:24.191Z,101676.31
2023-02-27T07:20:26.662Z,101674.53
2023-02-27T07:21:28.197Z,101692.75
2023-02-27T07:22:30.889Z,101693.97
2023-02-27T07:24:34.957Z,101689.47
2023-02-27T07:25:37.782Z,101693.75
2023-02-27T07:26:40.607Z,101696.53
2023-02-27T07:27:45.570Z,101688.72
2023-02-27T07:28:48.094Z,101696.59
2023-02-27T07:29:52.754Z,101687.81
2023-02-27T07:30:55.917Z,101694.47
2023-02-27T07:31:57.522Z,101683.28
2023-02-27T07:33:00.286Z,101690.03
2023-02-27T07:34:03.796Z,101690.81
2023-02-27T07:35:07.469Z,101685.59
2023-02-27T07:36:09.183Z,101695.69
2023-02-27T07:37:11.861Z,101689.75
2023-02-27T07:38:13.425Z,101693.28
2023-02-27T07:39:15.921Z,101691.34
2023-02-27T07:40:19.051Z,101691.69
2023-02-27T07:41:29.991Z,101685.00
2023-02-27T07:42:33.473Z,101685.41
2023-02-27T07:43:36.009Z,101693.06
2023-02-27T07:44:37.720Z,101689.84
2023-02-27T07:45:40.251Z,101691.91
2023-02-27T07:46:44.710Z,101696.25
2023-02-27T07:47:47.584Z,101687.53
2023-02-27T07:48:49.132Z,101691.41
2023-02-27T07:49:53.394Z,101689.63
2023-02-27T07:50:55.875Z,101681.69
2023-02-27T07:51:57.456Z,101684.44
2023-02-27T07:52:59.943Z,101689.41
2023-02-27T07:54:01.419Z,101685.44
2023-02-27T07:55:03.925Z,101687.34
2023-02-27T07:56:06.067Z,101692.97
2023-02-27T07:57:08.571Z,101700.34
2023-02-27T07:58:11.044Z,101698.78
2023-02-27T07:59:13.477Z,101696.25
2023-02-27T08:00:17.137Z,101696.63
2023-02-27T08:01:18.692Z,101698.31
2023-02-27T08:02:23.063Z,101690.50
2023-02-27T08:03:24.624Z,101697.41
2023-02-27T08:04:27.107Z,101695.09
2023-02-27T08:05:30.445Z,101705.00
2023-02-27T08:06:32.929Z,101698.31
2023-02-27T08:07:36.560Z,101700.44
2023-02-27T08:08:39.195Z,101688.19
2023-02-27T08:09:40.652Z,101701.44
2023-02-27T08:10:43.110Z,101696.34
2023-02-27T08:11:44.617Z,101695.00
2023-02-27T08:12:47.257Z,101698.47
2023-02-27T08:14:05.675Z,101691.28
2023-02-27T08:15:09.835Z,101698.84
2023-02-27T08:16:12.489Z,101689.03
2023-02-27T08:17:15.440Z,101697.72
2023-02-27T08:18:17.874Z,101701.56
2023-02-27T08:19:19.379Z,101702.88
2023-02-27T08:20:22.674Z,101694.75
2023-02-27T08:21:29.565Z,101704.66
2023-02-27T08:22:32.134Z,101703.06
2023-02-27T08:23:35.387Z,101701.94
2023-02-27T08:24:38.585Z,101702.63
2023-02-27T08:25:40.121Z,101700.63
2023-02-27T08:26:44.339Z,101700.16
2023-02-27T08:27:46.885Z,101696.16
2023-02-27T08:28:48.483Z,101697.66
2023-02-27T08:29:51.205Z,101695.88
2023-02-27T08:30:52.813Z,101710.81
2023-02-27T08:31:55.430Z,101699.66
2023-02-27T08:32:57.011Z,101706.69
2023-02-27T08:34:09.546Z,101704.03
2023-02-27T08:35:13.171Z,101703.19
2023-02-27T08:36:15.289Z,101700.50
2023-02-27T08:37:19.149Z,101699.53
2023-02-27T08:38:20.920Z,101707.66
2023-02-27T08:39:24.352Z,101713.41
2023-02-27T08:40:29.790Z,101711.22
2023-02-27T08:41:31.349Z,101708.47
2023-02-27T08:42:34.031Z,101715.41
2023-02-27T08:43:36.536Z,101713.75
2023-02-27T08:44:38.963Z,101716.19
2023-02-27T08:45:40.633Z,101707.06
2023-02-27T08:46:43.087Z,101712.06
2023-02-27T08:47:46.458Z,101710.91
2023-02-27T08:48:48.009Z,101714.53
2023-02-27T08:49:50.449Z,101712.28
2023-02-27T08:50:52.437Z,101719.47
2023-02-27T08:51:55.272Z,101715.06
2023-02-27T08:52:58.246Z,101719.47
2023-02-27T08:54:00.793Z,101709.63
2023-02-27T08:55:03.308Z,101718.41
2023-02-27T08:56:05.229Z,101710.91
2023-02-27T08:57:07.762Z,101706.50
2023-02-27T08:58:09.685Z,101711.22
2023-02-27T08:59:12.435Z,101718.22
2023-02-27T09:00:15.214Z,101722.38
2023-02-27T09:01:17.809Z,101722.13
2023-02-27T09:02:23.551Z,101727.66
2023-02-27T09:03:28.816Z,101724.78
2023-02-27T09:04:30.496Z,101723.44
2023-02-27T09:05:35.271Z,101725.97
2023-02-27T09:06:37.621Z,101730.47
2023-02-27T09:07:40.183Z,101732.00
2023-02-27T09:08:44.504Z,101732.53
2023-02-27T09:09:49.680Z,101740.09
2023-02-27T09:10:51.683Z,101738.78
2023-02-27T09:11:54.543Z,101730.13
2023-02-27T09:12:56.083Z,101737.31
2023-02-27T09:13:58.861Z,101724.16
2023-02-27T09:15:01.383Z,101728.63
2023-02-27T09:16:03.880Z,101725.13
2023-02-27T09:17:06.919Z,101721.66
2023-02-27T09:18:08.482Z,101725.13
2023-02-27T09:19:10.961Z,101732.97
2023-02-27T09:20:15.774Z,101718.63
2023-02-27T09:21:18.360Z,101724.03
2023-02-27T09:22:19.942Z,101724.19
2023-02-27T09:23:23.098Z,101736.88
2023-02-27T09:24:27.308Z,101723.75
2023-02-27T09:25:29.316Z,101726.13
2023-02-27T09:26:42.221Z,101726.22
2023-02-27T09:27:47.702Z,101729.03
2023-02-27T09:28:50.602Z,101729.69
2023-02-27T09:29:55.496Z,101723.94
2023-02-27T09:31:01.548Z,101722.44
2023-02-27T09:32:04.340Z,101721.72
2023-02-27T09:33:05.935Z,101728.38
2023-02-27T09:34:08.539Z,101721.72
2023-02-27T09:35:10.191Z,101724.25
2023-02-27T09:36:12.789Z,101718.16
2023-02-27T09:37:16.048Z,101727.63
2023-02-27T09:38:18.535Z,101728.25
2023-02-27T09:39:21.946Z,101730.00
2023-02-27T09:40:29.150Z,101720.16
2023-02-27T09:41:46.266Z,101722.50
2023-02-27T09:42:50.241Z,101726.84
2023-02-27T09:43:52.007Z,101726.84
2023-02-27T09:44:58.145Z,101723.94
2023-02-27T09:46:01.890Z,101728.50
2023-02-27T09:47:05.486Z,101734.56
2023-02-27T09:48:16.839Z,101731.41
2023-02-27T09:49:21.412Z,101732.03
2023-02-27T09:50:35.407Z,101735.16
2023-02-27T09:51:37.891Z,101728.69
2023-02-27T09:52:39.490Z,101731.31
2023-02-27T09:53:44.123Z,101726.06
2023-02-27T09:54:45.697Z,101734.34
2023-02-27T09:55:50.878Z,101733.84
2023-02-27T09:56:57.035Z,101729.88
2023-02-27T09:58:06.785Z,101736.91
2023-02-27T09:59:19.565Z,101744.81
2023-02-27T10:00:37.311Z,101729.25
2023-02-27T10:01:46.472Z,101729.03
2023-02-27T10:02:56.027Z,101729.75
2023-02-27T10:04:14.574Z,101726.22
2023-02-27T10:05:26.852Z,101727.13
2023-02-27T10:06:37.426Z,101735.13
2023-02-27T10:07:48.444Z,101727.00
2023-02-27T10:09:02.450Z,101729.31
2023-02-27T10:10:19.771Z,101729.75
2023-02-27T10:11:33.746Z,101736.00
2023-02-27T10:12:46.849Z,101730.19
2023-02-27T10:14:00.146Z,101735.50
2023-02-27T10:15:10.344Z,101729.72
2023-02-27T10:16:16.342Z,101735.56
2023-02-27T10:17:24.567Z,101738.06
2023-02-27T10:18:31.476Z,101733.50
2023-02-27T10:19:36.823Z,101737.84
2023-02-27T10:20:43.994Z,101732.25
2023-02-27T10:21:49.972Z,101736.59
2023-02-27T10:22:53.282Z,101743.47
2023-02-27T10:24:00.126Z,101741.22
2023-02-27T10:25:18.119Z,101737.88
2023-02-27T10:26:31.125Z,101739.94
2023-02-27T10:27:33.732Z,101737.25
2023-02-27T10:28:36.399Z,101734.56
2023-02-27T10:29:40.216Z,101737.16
2023-02-27T10:30:45.566Z,101743.31
2023-02-27T10:31:53.500Z,101737.59
2023-02-27T10:33:01.901Z,101739.78
2023-02-27T10:34:04.904Z,101739.19
2023-02-27T10:35:10.841Z,101741.22
2023-02-27T10:36:26.856Z,101735.56
2023-02-27T10:37:38.134Z,101737.25
2023-02-27T10:38:45.489Z,101740.50
2023-02-27T10:39:50.982Z,101743.06
2023-02-27T10:40:55.012Z,101733.72
2023-02-27T10:42:06.334Z,101740.97
2023-02-27T10:43:07.993Z,101739.31
2023-02-27T10:44:15.532Z,101741.06
2023-02-27T10:45:17.252Z,101747.88
2023-02-27T10:46:26.628Z,101747.09
2023-02-27T10:47:28.376Z,101740.88
2023-02-27T10:48:33.194Z,101738.47
2023-02-27T10:49:38.618Z,101742.25
2023-02-27T10:50:43.071Z,101743.06
2023-02-27T10:51:47.102Z,101750.34
2023-02-27T10:52:51.415Z,101740.56
2023-02-27T10:54:24.411Z,101749.66
2023-02-27T10:55:29.562Z,101740.97
2023-02-27T10:56:31.298Z,101744.91
2023-02-27T10:57:43.208Z,101737.69
2023-02-27T10:58:45.496Z,101744.13
2023-02-27T10:59:53.754Z,101733.09
2023-02-27T11:00:59.225Z,101738.88
2023-02-27T11:02:04.645Z,101740.16
2023-02-27T11:03:07.397Z,101747.59
2023-02-27T11:04:10.026Z,101744.28
2023-02-27T11:05:23.046Z,101743.75
2023-02-27T11:06:27.151Z,101753.25
2023-02-27T11:07:32.377Z,101749.38
2023-02-27T11:08:36.424Z,101743.28
2023-02-27T11:09:38.345Z,101743.53
2023-02-27T11:10:56.827Z,101739.22
2023-02-27T11:12:11.742Z,101747.19
2023-02-27T11:13:23.390Z,101744.47
2023-02-27T11:14:31.488Z,101741.34
2023-02-27T11:15:36.157Z,101740.56
2023-02-27T11:16:48.990Z,101731.09
2023-02-27T11:17:51.587Z,101732.97
2023-02-27T11:18:54.582Z,101732.97
2023-02-27T11:19:57.107Z,101728.88
2023-02-27T11:21:18.028Z,101723.50
2023-02-27T11:22:23.505Z,101728.06
2023-02-27T11:23:26.509Z,101732.03
2023-02-27T11:24:29.059Z,101730.63
2023-02-27T11:25:32.036Z,101728.19
2023-02-27T11:26:36.642Z,101724.31
2023-02-27T11:27:38.218Z,101731.78
2023-02-27T11:28:42.869Z,101728.50
2023-02-27T11:29:57.057Z,101728.06
2023-02-27T11:31:03.398Z,101725.19
2023-02-27T11:32:12.996Z,101722.88
2023-02-27T11:33:18.918Z,101723.94
2023-02-27T11:34:28.123Z,101720.81
2023-02-27T11:35:33.302Z,101713.56
2023-02-27T11:36:44.122Z,101716.06
2023-02-27T11:37:49.465Z,101716.47
2023-02-27T11:38:53.961Z,101717.91
2023-02-27T11:40:04.709Z,101712.47
2023-02-27T11:41:08.705Z,101715.72
2023-02-27T11:42:18.210Z,101706.69
2023-02-27T11:43:22.941Z,101720.00
2023-02-27T11:44:38.686Z,101709.94
2023-02-27T11:46:05.089Z,101700.22
2023-02-27T11:47:23.611Z,101707.94
2023-02-27T11:48:30.671Z,101712.69
2023-02-27T11:49:38.140Z,101712.91
2023-02-27T11:51:08.370Z,101712.28
2023-02-27T11:52:19.424Z,101706.47
2023-02-27T11:53:49.017Z,101715.22
2023-02-27T11:54:57.127Z,101712.19
2023-02-27T11:56:02.104Z,101711.13
2023-02-27T11:57:11.938Z,101712.25
2023-02-27T11:58:19.072Z,101710.81
2023-02-27T11:59:32.080Z,101706.22
2023-02-27T12:00:39.964Z,101707.25
2023-02-27T12:01:50.637Z,101712.44
2023-02-27T12:03:01.630Z,101711.00
2023-02-27T12:04:14.134Z,101715.13
2023-02-27T12:05:19.182Z,101711.88
2023-02-27T12:06:23.883Z,101715.66
2023-02-27T12:07:30.732Z,101710.00
2023-02-27T12:08:38.109Z,101707.25
2023-02-27T12:09:45.479Z,101713.13
2023-02-27T12:10:54.076Z,101708.88
2023-02-27T12:11:56.527Z,101716.31
2023-02-27T12:13:04.200Z,101706.81
2023-02-27T12:14:15.693Z,101697.69
2023-02-27T12:15:27.116Z,101696.06
2023-02-27T12:16:34.843Z,101694.22
2023-02-27T12:17:41.864Z,101693.16
2023-02-27T12:18:49.717Z,101691.31
2023-02-27T12:20:02.277Z,101689.53
2023-02-27T12:21:08.345Z,101693.13
2023-02-27T12:22:21.496Z,101695.66
2023-02-27T12:23:29.991Z,101693.09
2023-02-27T12:24:38.027Z,101686.25
2023-02-27T12:25:46.469Z,101691.63
2023-02-27T12:26:56.844Z,101689.19
2023-02-27T12:28:03.775Z,101688.97
2023-02-27T12:29:18.658Z,101697.44
2023-02-27T12:30:26.158Z,101698.38
2023-02-27T12:31:38.532Z,101686.44
2023-02-27T12:32:45.189Z,101702.91
2023-02-27T12:33:52.362Z,101695.09
2023-02-27T12:34:57.666Z,101702.53
2023-02-27T12:36:02.822Z,101700.56
2023-02-27T12:37:10.380Z,101681.03
2023-02-27T12:38:14.804Z,101690.38
2023-02-27T12:39:20.541Z,101695.16
2023-02-27T12:40:30.561Z,101695.00
2023-02-27T12:41:44.208Z,101702.97
2023-02-27T12:43:11.697Z,101697.38
2023-02-27T12:44:29.115Z,101704.06
2023-02-27T12:45:56.915Z,101699.53
2023-02-27T12:47:10.915Z,101695.88
2023-02-27T12:48:23.087Z,101693.66